Time;durP1;ratioP1;P1;durP2;ratioP2;P2;SDS_P1;SDS_P2;PMS_P1;PMS_P2;Temp;Humidity;BMP_temperature;BMP_pressure;BME280_temperature;BME280_humidity;BME280_pressure;Samples;Min_cycle;Max_cycle;Signal;HPM_P1;HPM_P2
2024/01/27 00:02:12;;;;;;;;;;;21.90;34.20;;;;;;5073835;28;19973;-57
2024/01/27 00:04:39;;;;;;;;;;;21.90;34.20;;;;;;5073693;28;19928;-59
2024/01/27 00:07:06;;;;;;;;;;;21.90;34.20;;;;;;5073354;28;19968;-57
2024/01/27 00:09:34;;;;;;;;;;;21.80;34.10;;;;;;5073537;28;19972;-58
2024/01/27 00:12:00;;;;;;;;;;;21.80;34.20;;;;;;5073927;28;19924;-59
2024/01/27 00:14:28;;;;;;;;;;;21.80;34.20;;;;;;5073285;28;20361;-57
2024/01/27 00:16:54;;;;;;;;;;;21.80;34.20;;;;;;5073910;28;19924;-58
2024/01/27 00:19:21;;;;;;;;;;;21.80;34.30;;;;;;5073626;28;20392;-57
2024/01/27 00:21:49;;;;;;;;;;;21.80;34.80;;;;;;5073535;28;20284;-58
2024/01/27 00:24:16;;;;;;;;;;;21.80;34.30;;;;;;5073040;28;19975;-58
2024/01/27 00:26:43;;;;;;;;;;;21.80;34.30;;;;;;5073553;28;20015;-57
2024/01/27 00:29:10;;;;;;;;;;;21.70;34.20;;;;;;5073239;28;19979;-58
2024/01/27 00:31:37;;;;;;;;;;;21.80;34.30;;;;;;5073232;28;19924;-57
2024/01/27 00:34:04;;;;;;;;;;;21.80;34.30;;;;;;5073255;28;20007;-58
2024/01/27 00:36:31;;;;;;;;;;;21.80;34.30;;;;;;5073110;28;20385;-58
2024/01/27 00:38:59;;;;;;;;;;;21.80;34.30;;;;;;5073469;28;19924;-58
2024/01/27 00:41:25;;;;;;;;;;;21.80;34.30;;;;;;5073244;28;20271;-58
2024/01/27 00:43:52;;;;;;;;;;;21.80;34.30;;;;;;5073269;28;19925;-57
2024/01/27 00:46:19;;;;;;;;;;;21.80;34.30;;;;;;5073351;28;19924;-58
2024/01/27 00:48:46;;;;;;;;;;;21.80;34.30;;;;;;5072915;28;20365;-58
2024/01/27 00:51:13;;;;;;;;;;;21.80;34.30;;;;;;5073139;28;19972;-56
2024/01/27 00:53:41;;;;;;;;;;;21.80;34.30;;;;;;5073151;28;19963;-58
2024/01/27 00:56:08;;;;;;;;;;;21.70;34.20;;;;;;5072483;28;19945;-58
2024/01/27 00:58:35;;;;;;;;;;;21.80;34.30;;;;;;5072834;28;19931;-58
2024/01/27 01:01:02;;;;;;;;;;;21.70;34.20;;;;;;5073338;28;20285;-57
2024/01/27 01:03:29;;;;;;;;;;;21.70;34.20;;;;;;5072870;28;20382;-58
2024/01/27 01:05:56;;;;;;;;;;;21.70;34.20;;;;;;5072974;28;20365;-57
2024/01/27 01:08:22;;;;;;;;;;;21.70;34.30;;;;;;5072831;28;20348;-58
2024/01/27 01:10:49;;;;;;;;;;;21.70;34.30;;;;;;5073214;28;19924;-56
2024/01/27 01:13:16;;;;;;;;;;;21.70;34.30;;;;;;5072626;28;19970;-58
2024/01/27 01:15:43;;;;;;;;;;;21.70;34.40;;;;;;5072088;28;19924;-57
2024/01/27 01:18:10;;;;;;;;;;;21.70;34.40;;;;;;5072330;28;19931;-58
2024/01/27 01:20:37;;;;;;;;;;;21.60;34.30;;;;;;5072900;28;19928;-58
2024/01/27 01:23:04;;;;;;;;;;;21.60;34.30;;;;;;5072900;28;20031;-57
2024/01/27 01:25:31;;;;;;;;;;;21.60;34.30;;;;;;5072663;28;20031;-58
2024/01/27 01:27:58;;;;;;;;;;;21.60;34.40;;;;;;5072543;28;19932;-57
2024/01/27 01:30:25;;;;;;;;;;;21.60;34.30;;;;;;5072713;28;20348;-58
2024/01/27 01:32:52;;;;;;;;;;;21.60;34.30;;;;;;5073194;28;19964;-57
2024/01/27 01:35:19;;;;;;;;;;;21.60;34.20;;;;;;5076953;28;19924;-57
2024/01/27 01:37:48;;;;;;;;;;;21.60;34.20;;;;;;5076368;28;20393;-58
2024/01/27 01:40:15;;;;;;;;;;;21.60;34.20;;;;;;5076519;28;19946;-58
2024/01/27 01:42:42;;;;;;;;;;;21.50;34.20;;;;;;5076633;28;19982;-58
2024/01/27 01:45:11;;;;;;;;;;;21.50;34.20;;;;;;5076733;28;19928;-56
2024/01/27 01:47:38;;;;;;;;;;;21.50;34.20;;;;;;5076272;28;20027;-58
2024/01/27 01:50:05;;;;;;;;;;;21.50;34.10;;;;;;5076295;28;19924;-58
2024/01/27 01:52:32;;;;;;;;;;;21.50;34.10;;;;;;5076191;28;20441;-57
2024/01/27 01:54:59;;;;;;;;;;;21.50;34.00;;;;;;5076262;28;20027;-58
2024/01/27 01:57:26;;;;;;;;;;;21.50;34.00;;;;;;5075665;28;20488;-57
2024/01/27 01:59:53;;;;;;;;;;;21.50;34.00;;;;;;5075868;28;19979;-58
2024/01/27 02:02:21;;;;;;;;;;;21.50;34.00;;;;;;5076186;28;20019;-58
2024/01/27 02:04:48;;;;;;;;;;;21.50;33.90;;;;;;5075864;28;20386;-57
2024/01/27 02:07:15;;;;;;;;;;;21.50;33.90;;;;;;5076279;28;20328;-57
2024/01/27 02:09:42;;;;;;;;;;;21.50;33.90;;;;;;5075901;28;19928;-58
2024/01/27 02:12:09;;;;;;;;;;;21.50;33.90;;;;;;5075714;28;19935;-58
2024/01/27 02:14:36;;;;;;;;;;;21.50;33.80;;;;;;5075718;28;19968;-58
2024/01/27 02:17:04;;;;;;;;;;;21.50;33.80;;;;;;5076241;28;19924;-57
2024/01/27 02:19:31;;;;;;;;;;;21.50;33.80;;;;;;5075709;28;20012;-58
2024/01/27 02:21:58;;;;;;;;;;;21.40;33.80;;;;;;5076126;28;19928;-58
2024/01/27 02:24:25;;;;;;;;;;;21.40;33.80;;;;;;5075932;28;19929;-58
2024/01/27 02:26:52;;;;;;;;;;;21.50;33.80;;;;;;5075896;28;20015;-58
2024/01/27 02:29:19;;;;;;;;;;;21.40;33.70;;;;;;5075752;28;19925;-58
2024/01/27 02:31:46;;;;;;;;;;;21.50;33.70;;;;;;5075846;28;20023;-57
2024/01/27 02:34:13;;;;;;;;;;;21.40;34.30;;;;;;5075954;28;19929;-56
2024/01/27 02:36:40;;;;;;;;;;;21.40;33.70;;;;;;5075210;28;20015;-58
2024/01/27 02:39:07;;;;;;;;;;;21.40;33.70;;;;;;5075755;28;19928;-57
2024/01/27 02:41:38;;;;;;;;;;;21.40;33.70;;;;;;5075408;28;19924;-58
2024/01/27 02:44:05;;;;;;;;;;;21.40;33.60;;;;;;5074674;28;20285;-58
2024/01/27 02:46:32;;;;;;;;;;;21.50;33.70;;;;;;5075051;28;19931;-58
2024/01/27 02:48:59;;;;;;;;;;;21.40;33.70;;;;;;5075032;28;19932;-58
2024/01/27 02:51:26;;;;;;;;;;;21.40;33.70;;;;;;5075568;28;20013;-58
2024/01/27 02:53:53;;;;;;;;;;;21.40;33.70;;;;;;5075159;28;19925;-58
2024/01/27 02:56:20;;;;;;;;;;;21.40;33.60;;;;;;5074832;28;19925;-58
2024/01/27 02:58:47;;;;;;;;;;;21.50;33.70;;;;;;5075228;28;19928;-58
2024/01/27 03:01:14;;;;;;;;;;;21.50;33.70;;;;;;5075098;28;19931;-58
2024/01/27 03:03:42;;;;;;;;;;;21.50;33.60;;;;;;5074914;28;20357;-58
2024/01/27 03:06:09;;;;;;;;;;;21.50;33.60;;;;;;5075106;28;19929;-57
2024/01/27 03:08:36;;;;;;;;;;;21.50;33.60;;;;;;5074779;28;19946;-58
2024/01/27 03:11:03;;;;;;;;;;;21.50;33.60;;;;;;5074513;28;19928;-58
2024/01/27 03:13:30;;;;;;;;;;;21.50;33.60;;;;;;5074851;28;20324;-59
2024/01/27 03:15:57;;;;;;;;;;;21.50;33.60;;;;;;5074789;28;20421;-58
2024/01/27 03:18:25;;;;;;;;;;;21.40;33.60;;;;;;5074659;28;20058;-58
2024/01/27 03:20:52;;;;;;;;;;;21.40;33.60;;;;;;5075037;28;19978;-58
2024/01/27 03:23:19;;;;;;;;;;;21.40;33.60;;;;;;5074600;28;19982;-58
2024/01/27 03:25:46;;;;;;;;;;;21.40;33.60;;;;;;5074079;28;19931;-57
2024/01/27 03:28:12;;;;;;;;;;;21.40;33.60;;;;;;5073948;28;20389;-58
2024/01/27 03:30:39;;;;;;;;;;;21.40;33.60;;;;;;5074661;28;19934;-58
2024/01/27 03:33:10;;;;;;;;;;;21.40;33.60;;;;;;5074094;28;20009;-58
2024/01/27 03:35:38;;;;;;;;;;;21.40;33.60;;;;;;5074310;28;20397;-58
2024/01/27 03:38:07;;;;;;;;;;;21.40;33.70;;;;;;5074267;28;19994;-58
2024/01/27 03:40:34;;;;;;;;;;;21.40;33.70;;;;;;5074194;28;20428;-58
2024/01/27 03:43:01;;;;;;;;;;;21.40;33.70;;;;;;5073724;28;19928;-57
2024/01/27 03:45:28;;;;;;;;;;;21.40;33.80;;;;;;5074125;28;19964;-58
2024/01/27 03:47:55;;;;;;;;;;;21.40;33.80;;;;;;5074212;28;20134;-58
2024/01/27 03:50:22;;;;;;;;;;;21.40;33.80;;;;;;5073810;28;20296;-59
2024/01/27 03:52:49;;;;;;;;;;;21.30;33.70;;;;;;5073684;28;20167;-58
2024/01/27 03:55:16;;;;;;;;;;;21.30;33.70;;;;;;5073709;28;19924;-59
2024/01/27 03:57:43;;;;;;;;;;;21.30;33.80;;;;;;5073681;28;19951;-58
2024/01/27 04:00:12;;;;;;;;;;;21.30;33.80;;;;;;5073769;28;19929;-58
2024/01/27 04:02:39;;;;;;;;;;;21.30;33.80;;;;;;5073960;28;19924;-56
2024/01/27 04:05:06;;;;;;;;;;;21.40;33.80;;;;;;5074176;28;20336;-58
2024/01/27 04:07:33;;;;;;;;;;;21.40;33.80;;;;;;5074075;28;20031;-58
2024/01/27 04:10:02;;;;;;;;;;;21.40;33.80;;;;;;5073899;28;19928;-58
2024/01/27 04:12:28;;;;;;;;;;;21.40;33.80;;;;;;5073955;28;19924;-58
2024/01/27 04:14:57;;;;;;;;;;;21.40;33.80;;;;;;5073919;28;19946;-56
2024/01/27 04:17:24;;;;;;;;;;;21.40;33.80;;;;;;5073139;28;20382;-58
2024/01/27 04:19:51;;;;;;;;;;;21.40;33.80;;;;;;5073280;28;19929;-58
2024/01/27 04:22:18;;;;;;;;;;;21.40;33.80;;;;;;5073742;28;20360;-56
2024/01/27 04:24:45;;;;;;;;;;;21.40;33.80;;;;;;5073248;28;19968;-58
2024/01/27 04:27:12;;;;;;;;;;;21.40;33.90;;;;;;5073570;28;20278;-57
2024/01/27 04:29:39;;;;;;;;;;;21.40;33.90;;;;;;5073132;28;19928;-59
2024/01/27 04:32:06;;;;;;;;;;;21.30;33.80;;;;;;5073347;28;19929;-58
2024/01/27 04:34:33;;;;;;;;;;;21.40;34.00;;;;;;5073444;28;19930;-57
2024/01/27 04:37:01;;;;;;;;;;;21.40;34.00;;;;;;5073574;28;19928;-57
2024/01/27 04:39:28;;;;;;;;;;;21.30;33.80;;;;;;5072903;28;20344;-56
2024/01/27 04:41:55;;;;;;;;;;;21.30;33.60;;;;;;5073193;28;19924;-57
2024/01/27 04:44:22;;;;;;;;;;;21.40;33.60;;;;;;5073136;28;19924;-57
2024/01/27 04:46:49;;;;;;;;;;;21.40;33.40;;;;;;5073477;28;19925;-57
2024/01/27 04:49:16;;;;;;;;;;;21.40;33.30;;;;;;5072748;28;20400;-58
2024/01/27 04:51:43;;;;;;;;;;;21.40;33.20;;;;;;5073481;28;19994;-58
2024/01/27 04:54:09;;;;;;;;;;;21.40;33.10;;;;;;5072893;28;20011;-57
2024/01/27 04:56:36;;;;;;;;;;;21.40;33.00;;;;;;5072847;28;19925;-56
2024/01/27 04:59:03;;;;;;;;;;;21.40;32.90;;;;;;5073290;28;20007;-57
2024/01/27 05:01:31;;;;;;;;;;;21.40;32.90;;;;;;5072762;28;19928;-58
2024/01/27 05:03:58;;;;;;;;;;;21.40;32.80;;;;;;5073227;28;19931;-57
2024/01/27 05:06:25;;;;;;;;;;;21.40;32.80;;;;;;5072627;28;19950;-57
2024/01/27 05:08:52;;;;;;;;;;;21.40;32.70;;;;;;5075417;28;20271;-56
2024/01/27 05:11:29;;;;;;;;;;;21.40;32.60;;;;;;5077253;28;19924;-57
2024/01/27 05:13:56;;;;;;;;;;;21.40;32.60;;;;;;5077331;28;19924;-59
2024/01/27 05:16:26;;;;;;;;;;;21.40;32.60;;;;;;5076740;28;20047;-58
2024/01/27 05:18:53;;;;;;;;;;;21.40;32.50;;;;;;5077209;28;20275;-57
2024/01/27 05:21:20;;;;;;;;;;;21.40;32.40;;;;;;5076745;28;19971;-57
2024/01/27 05:23:47;;;;;;;;;;;21.40;32.30;;;;;;5076799;28;19924;-56
2024/01/27 05:26:14;;;;;;;;;;;21.40;32.30;;;;;;5076756;28;20287;-57
2024/01/27 05:28:40;;;;;;;;;;;21.50;32.40;;;;;;5076575;28;19932;-56
2024/01/27 05:31:08;;;;;;;;;;;21.40;32.30;;;;;;5076942;28;19924;-57
2024/01/27 05:33:36;;;;;;;;;;;21.40;32.30;;;;;;5076969;28;19929;-57
2024/01/27 05:36:03;;;;;;;;;;;21.40;32.20;;;;;;5076808;28;20354;-58
2024/01/27 05:38:31;;;;;;;;;;;21.40;32.20;;;;;;5076300;28;19925;-58
2024/01/27 05:41:02;;;;;;;;;;;21.40;32.10;;;;;;5076685;28;20369;-57
2024/01/27 05:43:29;;;;;;;;;;;21.40;32.10;;;;;;5076478;28;19972;-58
2024/01/27 05:45:56;;;;;;;;;;;21.40;32.10;;;;;;5076558;28;19931;-57
2024/01/27 05:48:23;;;;;;;;;;;21.40;32.10;;;;;;5076466;28;20019;-58
2024/01/27 05:50:57;;;;;;;;;;;21.40;32.00;;;;;;5076625;28;20011;-58
2024/01/27 05:53:24;;;;;;;;;;;21.40;32.00;;;;;;5075272;28;19924;-58
2024/01/27 05:55:52;;;;;;;;;;;21.40;32.00;;;;;;5076091;28;20015;-58
2024/01/27 05:58:23;;;;;;;;;;;21.40;32.00;;;;;;5075844;28;19974;-58
2024/01/27 06:00:49;;;;;;;;;;;21.40;31.90;;;;;;5076205;28;19928;-58
2024/01/27 06:03:17;;;;;;;;;;;21.40;31.90;;;;;;5076344;28;20362;-56
2024/01/27 06:05:44;;;;;;;;;;;21.40;31.90;;;;;;5076086;28;19924;-55
2024/01/27 06:08:11;;;;;;;;;;;21.40;31.80;;;;;;5076115;28;19987;-58
2024/01/27 06:10:39;;;;;;;;;;;21.40;31.90;;;;;;5076394;28;20292;-58
2024/01/27 06:13:06;;;;;;;;;;;21.40;31.80;;;;;;5075582;28;19970;-57
2024/01/27 06:15:33;;;;;;;;;;;21.40;31.70;;;;;;5074801;28;19978;-58
2024/01/27 06:18:00;;;;;;;;;;;21.40;31.70;;;;;;5076034;28;19986;-57
2024/01/27 06:20:30;;;;;;;;;;;21.40;31.70;;;;;;5075720;28;19931;-57
2024/01/27 06:22:57;;;;;;;;;;;21.40;31.70;;;;;;5075597;28;19924;-58
2024/01/27 06:25:24;;;;;;;;;;;21.40;31.60;;;;;;5076186;28;19924;-57
2024/01/27 06:27:51;;;;;;;;;;;21.40;31.60;;;;;;5075427;28;20032;-57
2024/01/27 06:30:18;;;;;;;;;;;21.40;31.60;;;;;;5075273;28;19925;-57
2024/01/27 06:32:46;;;;;;;;;;;21.40;31.50;;;;;;5075537;28;20336;-58
2024/01/27 06:35:13;;;;;;;;;;;21.40;31.50;;;;;;5076059;28;19983;-57
2024/01/27 06:37:40;;;;;;;;;;;21.40;31.40;;;;;;5075407;28;19928;-57
2024/01/27 06:40:09;;;;;;;;;;;21.40;31.40;;;;;;5075130;28;19932;-58
2024/01/27 06:42:36;;;;;;;;;;;21.40;31.30;;;;;;5075479;28;19930;-57
2024/01/27 06:45:03;;;;;;;;;;;21.40;31.20;;;;;;5075176;28;19924;-59
2024/01/27 06:47:30;;;;;;;;;;;21.40;31.20;;;;;;5075208;28;20378;-55
2024/01/27 06:49:57;;;;;;;;;;;21.40;31.20;;;;;;5074965;28;20370;-57
2024/01/27 06:52:24;;;;;;;;;;;21.40;31.10;;;;;;5075251;28;20419;-55
2024/01/27 06:54:51;;;;;;;;;;;21.50;31.10;;;;;;5075046;28;19924;-57
2024/01/27 06:57:21;;;;;;;;;;;21.50;31.10;;;;;;5075094;28;19924;-57
2024/01/27 06:59:52;;;;;;;;;;;21.50;31.10;;;;;;5075109;28;19932;-56
2024/01/27 07:02:28;;;;;;;;;;;21.50;31.00;;;;;;5074911;28;19924;-56
2024/01/27 07:04:55;;;;;;;;;;;21.50;31.00;;;;;;5074896;28;19931;-57
2024/01/27 07:07:24;;;;;;;;;;;21.50;30.90;;;;;;5074995;28;19972;-57
2024/01/27 07:09:52;;;;;;;;;;;21.50;30.90;;;;;;5074745;28;19970;-59
2024/01/27 07:12:19;;;;;;;;;;;21.50;30.90;;;;;;5074774;28;19925;-62
2024/01/27 07:14:46;;;;;;;;;;;21.60;30.90;;;;;;5075091;28;20001;-59
2024/01/27 07:17:13;;;;;;;;;;;21.50;30.80;;;;;;5074660;28;19925;-60
2024/01/27 07:19:40;;;;;;;;;;;21.60;30.80;;;;;;5074288;28;19936;-60
2024/01/27 07:22:07;;;;;;;;;;;21.60;30.80;;;;;;5074654;28;19924;-60
2024/01/27 07:24:34;;;;;;;;;;;21.60;30.90;;;;;;5074214;28;20039;-59
2024/01/27 07:27:01;;;;;;;;;;;21.60;30.80;;;;;;5066331;28;20362;-60
2024/01/27 07:29:28;;;;;;;;;;;21.60;30.70;;;;;;5074375;28;20301;-63
2024/01/27 07:31:55;;;;;;;;;;;21.60;30.70;;;;;;5069591;28;19960;-68
2024/01/27 07:34:22;;;;;;;;;;;21.70;30.80;;;;;;5068259;28;20015;-59
2024/01/27 07:36:49;;;;;;;;;;;21.70;30.70;;;;;;5083044;28;19924;-59
2024/01/27 07:39:16;;;;;;;;;;;21.70;30.70;;;;;;5083296;28;20389;-60
2024/01/27 07:41:43;;;;;;;;;;;21.70;30.70;;;;;;5084209;28;19924;-63
2024/01/27 07:44:10;;;;;;;;;;;21.70;30.60;;;;;;5084567;28;19928;-65
2024/01/27 07:46:38;;;;;;;;;;;21.80;30.60;;;;;;5084788;28;19978;-59
2024/01/27 07:49:06;;;;;;;;;;;21.80;30.60;;;;;;5082563;28;20400;-66
2024/01/27 07:51:34;;;;;;;;;;;21.80;30.60;;;;;;5083280;28;19928;-61
2024/01/27 07:54:01;;;;;;;;;;;21.80;30.60;;;;;;5085061;28;19934;-62
2024/01/27 07:56:28;;;;;;;;;;;21.80;30.60;;;;;;5083101;28;20015;-60
2024/01/27 07:58:55;;;;;;;;;;;21.80;30.60;;;;;;5083601;28;19930;-64
2024/01/27 08:01:22;;;;;;;;;;;21.80;30.50;;;;;;5066941;28;19932;-59
2024/01/27 08:03:49;;;;;;;;;;;21.80;30.50;;;;;;5065202;28;19925;-56
2024/01/27 08:06:18;;;;;;;;;;;21.80;30.50;;;;;;5083972;28;19932;-57
2024/01/27 08:08:48;;;;;;;;;;;21.80;30.50;;;;;;5083786;28;19924;-57
2024/01/27 08:11:17;;;;;;;;;;;21.80;30.50;;;;;;5083371;28;19963;-59
2024/01/27 08:13:44;;;;;;;;;;;21.80;30.50;;;;;;5084417;28;19924;-58
2024/01/27 08:16:12;;;;;;;;;;;21.80;30.50;;;;;;5083206;28;19924;-59
2024/01/27 08:18:42;;;;;;;;;;;21.90;30.50;;;;;;5082703;28;19932;-58
2024/01/27 08:21:09;;;;;;;;;;;21.90;30.50;;;;;;5080320;28;19931;-58
2024/01/27 08:23:36;;;;;;;;;;;21.90;30.40;;;;;;5082923;28;19928;-58
2024/01/27 08:26:03;;;;;;;;;;;21.90;30.40;;;;;;5084702;28;19978;-58
2024/01/27 08:28:30;;;;;;;;;;;21.90;30.40;;;;;;5082740;28;20045;-58
2024/01/27 08:30:59;;;;;;;;;;;21.90;30.40;;;;;;5082097;28;19924;-58
2024/01/27 08:33:26;;;;;;;;;;;22.00;30.40;;;;;;5078983;28;20369;-58
2024/01/27 08:35:53;;;;;;;;;;;22.00;30.30;;;;;;5083410;28;19967;-57
2024/01/27 08:38:20;;;;;;;;;;;22.00;30.30;;;;;;5080671;28;19925;-58
2024/01/27 08:40:47;;;;;;;;;;;22.00;30.20;;;;;;5079047;28;19970;-59
2024/01/27 08:43:14;;;;;;;;;;;22.00;30.20;;;;;;5082388;28;20499;-58
2024/01/27 08:45:41;;;;;;;;;;;22.00;30.20;;;;;;5083767;28;20022;-57
2024/01/27 08:48:09;;;;;;;;;;;22.00;30.10;;;;;;5079004;28;19932;-55
2024/01/27 08:50:37;;;;;;;;;;;22.10;30.10;;;;;;5081535;28;20024;-58
2024/01/27 08:53:04;;;;;;;;;;;22.10;30.10;;;;;;5081540;28;19932;-58
2024/01/27 08:55:30;;;;;;;;;;;22.10;30.00;;;;;;5083248;28;20019;-58
2024/01/27 08:57:57;;;;;;;;;;;22.10;30.00;;;;;;5082836;28;20437;-53
2024/01/27 09:00:24;;;;;;;;;;;22.10;30.00;;;;;;5081325;28;19935;-58
2024/01/27 09:02:52;;;;;;;;;;;22.10;30.00;;;;;;5078897;28;19925;-57
2024/01/27 09:05:19;;;;;;;;;;;22.10;30.00;;;;;;5081993;28;20396;-58
2024/01/27 09:07:46;;;;;;;;;;;22.20;30.00;;;;;;5081180;28;19924;-57
2024/01/27 09:10:15;;;;;;;;;;;22.20;30.00;;;;;;5081017;28;20006;-59
2024/01/27 09:12:42;;;;;;;;;;;22.20;30.00;;;;;;5083302;28;19932;-59
2024/01/27 09:15:09;;;;;;;;;;;22.20;30.00;;;;;;5081995;28;19970;-58
2024/01/27 09:17:37;;;;;;;;;;;22.30;30.00;;;;;;5082141;28;19924;-59
2024/01/27 09:20:04;;;;;;;;;;;22.30;30.00;;;;;;5083154;28;19978;-59
2024/01/27 09:22:31;;;;;;;;;;;22.40;30.00;;;;;;5081951;28;20019;-59
2024/01/27 09:24:58;;;;;;;;;;;22.40;30.00;;;;;;5081684;28;19928;-59
2024/01/27 09:27:25;;;;;;;;;;;22.40;30.00;;;;;;5083233;28;19924;-58
2024/01/27 09:29:52;;;;;;;;;;;22.40;29.90;;;;;;5082293;28;20255;-59
2024/01/27 09:32:19;;;;;;;;;;;22.40;29.90;;;;;;5081676;28;19950;-59
2024/01/27 09:34:46;;;;;;;;;;;22.50;29.90;;;;;;5082432;28;19999;-59
2024/01/27 09:37:13;;;;;;;;;;;22.50;29.90;;;;;;5081739;28;20332;-58
2024/01/27 09:39:41;;;;;;;;;;;22.50;29.80;;;;;;5081373;28;19924;-58
2024/01/27 09:42:11;;;;;;;;;;;22.60;29.90;;;;;;5078684;28;19924;-59
2024/01/27 09:44:39;;;;;;;;;;;22.60;29.80;;;;;;5081723;28;20409;-59
2024/01/27 09:47:06;;;;;;;;;;;22.60;29.80;;;;;;5083584;28;19924;-58
2024/01/27 09:49:34;;;;;;;;;;;22.60;29.80;;;;;;5082236;28;20385;-59
2024/01/27 09:52:01;;;;;;;;;;;22.60;29.80;;;;;;5081039;28;19924;-59
2024/01/27 09:54:28;;;;;;;;;;;22.70;29.80;;;;;;5083949;28;20379;-58
2024/01/27 09:56:55;;;;;;;;;;;22.70;29.80;;;;;;5085824;28;19924;-59
2024/01/27 09:59:23;;;;;;;;;;;22.70;29.70;;;;;;5084738;28;19924;-59
2024/01/27 10:01:51;;;;;;;;;;;22.70;29.70;;;;;;5082750;28;19925;-58
2024/01/27 10:04:19;;;;;;;;;;;22.70;29.60;;;;;;5085591;28;19991;-58
2024/01/27 10:06:47;;;;;;;;;;;22.80;29.60;;;;;;5087043;28;20288;-59
2024/01/27 10:09:15;;;;;;;;;;;22.80;29.60;;;;;;5085650;28;19925;-60
2024/01/27 10:11:45;;;;;;;;;;;22.80;29.60;;;;;;5063176;28;19931;-57
2024/01/27 10:14:12;;;;;;;;;;;22.80;29.60;;;;;;5082815;28;19925;-58
2024/01/27 10:16:42;;;;;;;;;;;22.80;29.60;;;;;;5085112;28;19932;-59
2024/01/27 10:19:16;;;;;;;;;;;22.80;29.60;;;;;;5081379;28;19932;-58
2024/01/27 10:21:43;;;;;;;;;;;22.80;29.50;;;;;;5084446;28;19947;-58
2024/01/27 10:24:10;;;;;;;;;;;22.80;29.50;;;;;;5082037;28;19925;-58
2024/01/27 10:26:37;;;;;;;;;;;22.90;29.50;;;;;;5085172;28;19924;-58
2024/01/27 10:29:04;;;;;;;;;;;22.90;29.50;;;;;;5086413;28;19924;-58
2024/01/27 10:31:33;;;;;;;;;;;22.90;29.50;;;;;;5066677;28;20007;-58
2024/01/27 10:34:09;;;;;;;;;;;22.90;29.40;;;;;;5084637;28;20423;-58
2024/01/27 10:36:40;;;;;;;;;;;22.90;29.40;;;;;;5083486;28;19970;-58
2024/01/27 10:39:16;;;;;;;;;;;22.90;29.30;;;;;;5083594;28;19931;-58
2024/01/27 10:41:44;;;;;;;;;;;22.90;29.30;;;;;;5081124;28;19924;-58
2024/01/27 10:44:13;;;;;;;;;;;22.90;29.30;;;;;;5081276;28;19948;-58
2024/01/27 10:46:46;;;;;;;;;;;22.90;29.20;;;;;;5082911;28;19924;-59
2024/01/27 10:49:14;;;;;;;;;;;23.00;29.30;;;;;;5080741;28;20344;-58
2024/01/27 10:51:44;;;;;;;;;;;23.00;29.20;;;;;;5083978;28;19975;-59
2024/01/27 10:54:15;;;;;;;;;;;23.00;29.20;;;;;;5082263;28;19924;-58
2024/01/27 10:56:43;;;;;;;;;;;23.00;29.10;;;;;;5083636;28;19925;-58
2024/01/27 10:59:11;;;;;;;;;;;23.00;29.10;;;;;;5080762;28;19928;-58
2024/01/27 11:01:39;;;;;;;;;;;23.00;29.10;;;;;;5084036;28;20013;-58
2024/01/27 11:04:07;;;;;;;;;;;23.00;29.10;;;;;;5084888;28;19928;-59
2024/01/27 11:06:35;;;;;;;;;;;23.10;29.10;;;;;;5083067;28;19925;-57
2024/01/27 11:09:05;;;;;;;;;;;23.10;29.10;;;;;;5083484;28;20398;-58
2024/01/27 11:11:32;;;;;;;;;;;23.10;29.10;;;;;;5081909;28;19925;-59
2024/01/27 11:13:59;;;;;;;;;;;23.10;29.00;;;;;;5084041;28;19924;-58
2024/01/27 11:16:28;;;;;;;;;;;23.10;29.00;;;;;;5085719;28;20367;-58
2024/01/27 11:18:56;;;;;;;;;;;23.10;29.00;;;;;;5084105;28;19971;-58
2024/01/27 11:21:23;;;;;;;;;;;23.10;29.00;;;;;;5083300;28;19924;-58
2024/01/27 11:23:50;;;;;;;;;;;23.20;29.00;;;;;;5059296;28;19924;-58
2024/01/27 11:26:21;;;;;;;;;;;23.20;29.00;;;;;;5084036;28;19931;-58
2024/01/27 11:28:49;;;;;;;;;;;23.20;29.00;;;;;;5064185;28;20294;-57
2024/01/27 11:31:19;;;;;;;;;;;23.20;28.90;;;;;;5081009;28;19924;-59
2024/01/27 11:33:48;;;;;;;;;;;23.20;28.90;;;;;;5085162;28;19962;-57
2024/01/27 11:36:18;;;;;;;;;;;23.20;28.90;;;;;;5083088;28;21377;-58
2024/01/27 11:38:46;;;;;;;;;;;23.20;28.80;;;;;;5080629;28;19928;-58
2024/01/27 11:41:13;;;;;;;;;;;23.30;28.90;;;;;;5084512;28;19947;-58
2024/01/27 11:43:40;;;;;;;;;;;23.30;28.80;;;;;;5084588;28;19982;-58
2024/01/27 11:46:06;;;;;;;;;;;23.30;28.80;;;;;;5081996;28;19931;-58
2024/01/27 11:48:41;;;;;;;;;;;23.30;28.80;;;;;;5084072;28;20346;-58
2024/01/27 11:51:12;;;;;;;;;;;23.30;28.70;;;;;;5082625;28;19931;-58
2024/01/27 11:53:39;;;;;;;;;;;23.30;28.70;;;;;;5083647;28;19927;-58
2024/01/27 11:56:06;;;;;;;;;;;23.30;28.70;;;;;;5084422;28;19997;-59
2024/01/27 11:58:33;;;;;;;;;;;23.30;28.60;;;;;;5082977;28;19977;-58
2024/01/27 12:01:00;;;;;;;;;;;23.30;28.60;;;;;;5073371;28;19971;-59
2024/01/27 12:03:28;;;;;;;;;;;23.30;28.50;;;;;;5073625;28;20009;-58
2024/01/27 12:05:55;;;;;;;;;;;23.30;28.50;;;;;;5073520;28;19928;-58
2024/01/27 12:08:23;;;;;;;;;;;23.30;28.50;;;;;;5084157;28;19924;-58
2024/01/27 12:10:50;;;;;;;;;;;23.30;28.50;;;;;;5083213;28;20332;-58
2024/01/27 12:13:17;;;;;;;;;;;23.40;28.60;;;;;;5081077;28;20007;-57
2024/01/27 12:15:44;;;;;;;;;;;23.40;28.60;;;;;;5073923;28;20281;-58
2024/01/27 12:18:12;;;;;;;;;;;23.40;28.50;;;;;;5056820;28;19925;-58
2024/01/27 12:20:39;;;;;;;;;;;23.40;28.50;;;;;;5035694;28;19924;-58
2024/01/27 12:23:06;;;;;;;;;;;23.40;28.50;;;;;;5055236;28;20351;-59
2024/01/27 12:25:34;;;;;;;;;;;23.40;28.50;;;;;;5069411;28;19925;-58
2024/01/27 12:28:05;;;;;;;;;;;23.40;28.40;;;;;;5072451;28;19924;-58
2024/01/27 12:30:32;;;;;;;;;;;23.40;28.40;;;;;;5072594;28;19932;-58
2024/01/27 12:33:00;;;;;;;;;;;23.40;28.40;;;;;;5071190;28;20003;-59
2024/01/27 12:35:29;;;;;;;;;;;23.30;28.30;;;;;;5072491;28;19924;-58
2024/01/27 12:37:59;;;;;;;;;;;23.30;28.30;;;;;;5073432;28;20396;-58
2024/01/27 12:40:26;;;;;;;;;;;23.40;28.40;;;;;;5073099;28;20373;-57
2024/01/27 12:42:53;;;;;;;;;;;23.30;28.30;;;;;;5073244;28;19924;-58
2024/01/27 12:45:20;;;;;;;;;;;23.30;28.30;;;;;;5073674;28;19931;-58
2024/01/27 12:47:48;;;;;;;;;;;23.40;28.40;;;;;;5073697;28;19924;-59
2024/01/27 12:50:16;;;;;;;;;;;23.30;28.30;;;;;;5073116;28;19984;-58
2024/01/27 12:52:43;;;;;;;;;;;23.40;28.30;;;;;;5073205;28;19924;-58
2024/01/27 12:55:10;;;;;;;;;;;23.40;28.30;;;;;;5073778;28;19925;-58
2024/01/27 12:57:36;;;;;;;;;;;23.40;28.30;;;;;;5073196;28;19932;-58
2024/01/27 13:00:09;;;;;;;;;;;23.40;28.30;;;;;;5073275;28;20301;-59
2024/01/27 13:02:37;;;;;;;;;;;23.40;28.30;;;;;;5073135;28;20385;-58
2024/01/27 13:05:04;;;;;;;;;;;23.30;28.20;;;;;;5073168;28;19925;-59
2024/01/27 13:07:31;;;;;;;;;;;23.30;28.20;;;;;;5073640;28;19924;-58
2024/01/27 13:09:58;;;;;;;;;;;23.30;28.20;;;;;;5055424;28;20384;-58
2024/01/27 13:12:25;;;;;;;;;;;23.40;28.30;;;;;;5073167;28;19924;-58
2024/01/27 13:14:52;;;;;;;;;;;23.40;28.20;;;;;;5073412;28;19931;-58
2024/01/27 13:17:19;;;;;;;;;;;23.40;28.30;;;;;;5073386;28;19936;-58
2024/01/27 13:19:46;;;;;;;;;;;23.40;28.30;;;;;;5072851;28;20435;-58
2024/01/27 13:22:13;;;;;;;;;;;23.40;28.30;;;;;;5073171;28;19936;-58
2024/01/27 13:24:40;;;;;;;;;;;23.40;28.30;;;;;;5071226;28;19935;-58
2024/01/27 13:27:08;;;;;;;;;;;23.40;28.30;;;;;;5072910;28;19931;-58
2024/01/27 13:29:35;;;;;;;;;;;23.40;28.20;;;;;;5075065;28;20011;-58
2024/01/27 13:32:02;;;;;;;;;;;23.40;28.20;;;;;;5075652;28;19972;-58
2024/01/27 13:34:30;;;;;;;;;;;23.40;28.10;;;;;;5076995;28;19971;-58
2024/01/27 13:36:59;;;;;;;;;;;23.40;28.20;;;;;;5075852;28;19924;-58
2024/01/27 13:39:26;;;;;;;;;;;23.40;28.10;;;;;;5076809;28;19959;-58
2024/01/27 13:41:53;;;;;;;;;;;23.40;28.10;;;;;;5075800;28;19925;-59
2024/01/27 13:44:20;;;;;;;;;;;23.40;28.10;;;;;;5076424;28;19929;-59
2024/01/27 13:46:47;;;;;;;;;;;23.40;28.20;;;;;;5076508;28;20042;-59
2024/01/27 13:49:14;;;;;;;;;;;23.40;28.10;;;;;;5075185;28;20389;-59
2024/01/27 13:51:41;;;;;;;;;;;23.30;28.10;;;;;;5076716;28;19978;-59
2024/01/27 13:54:09;;;;;;;;;;;23.30;28.10;;;;;;5076229;28;20013;-59
2024/01/27 13:56:36;;;;;;;;;;;23.30;28.10;;;;;;5076678;28;20369;-58
2024/01/27 13:59:04;;;;;;;;;;;23.30;28.50;;;;;;5076546;28;19925;-58
2024/01/27 14:01:31;;;;;;;;;;;23.30;28.10;;;;;;5076311;28;20385;-59
2024/01/27 14:03:58;;;;;;;;;;;23.30;28.00;;;;;;5076344;28;19932;-58
2024/01/27 14:06:25;;;;;;;;;;;23.30;28.00;;;;;;5076169;28;19929;-58
2024/01/27 14:08:52;;;;;;;;;;;23.30;28.00;;;;;;5076583;28;19925;-59
2024/01/27 14:11:21;;;;;;;;;;;23.30;28.00;;;;;;5076076;28;19929;-59
2024/01/27 14:13:48;;;;;;;;;;;23.30;28.00;;;;;;5076262;28;19924;-58
2024/01/27 14:16:15;;;;;;;;;;;23.30;28.00;;;;;;5075980;28;20377;-58
2024/01/27 14:18:46;;;;;;;;;;;23.30;28.00;;;;;;5076174;28;19928;-59